Time;durP1;ratioP1;P1;durP2;ratioP2;P2;SDS_P1;SDS_P2;PMS_P1;PMS_P2;Temp;Humidity;BMP_temperature;BMP_pressure;BME280_temperature;BME280_humidity;BME280_pressure;Samples;Min_cycle;Max_cycle;Signal;HPM_P1;HPM_P2
2021/12/17 00:00:20;;;;;;;33.15;11.60;;;;;;;7.42;100.00;103944.69;5051530;28;20041;-54
2021/12/17 00:05:51;;;;;;;36.28;12.68;;;;;;;7.42;100.00;103953.41;5052436;28;20032;-55
2021/12/17 00:08:22;;;;;;;33.92;11.75;;;;;;;7.42;100.00;103955.16;5050931;28;20053;-55
2021/12/17 00:10:52;;;;;;;38.33;12.77;;;;;;;7.42;100.00;103960.41;5051791;28;20056;-56
2021/12/17 00:13:22;;;;;;;39.83;13.38;;;;;;;7.39;100.00;103960.38;5042366;28;20450;-56
2021/12/17 00:15:50;;;;;;;39.33;13.13;;;;;;;7.40;100.00;103956.91;5043078;28;20049;-54
2021/12/17 00:18:24;;;;;;;34.25;12.40;;;;;;;7.39;100.00;103960.38;5053985;28;20048;-53
2021/12/17 00:48:44;;;;;;;42.20;14.15;;;;;;;7.30;100.00;103947.34;5046652;28;20080;-55
2021/12/17 00:51:48;;;;;;;45.15;13.98;;;;;;;7.26;100.00;103941.22;5048495;28;20045;-56
2021/12/17 00:54:21;;;;;;;41.38;14.40;;;;;;;7.24;100.00;103932.47;5042940;28;20049;-56
2021/12/17 00:56:51;;;;;;;38.25;13.95;;;;;;;7.22;100.00;103936.88;5046761;28;20776;-53
2021/12/17 00:59:21;;;;;;;40.08;13.05;;;;;;;7.20;100.00;103931.63;5048265;28;20075;-56
2021/12/17 01:01:51;;;;;;;39.28;11.93;;;;;;;7.23;100.00;103930.75;5043516;28;20512;-55
2021/12/17 01:04:20;;;;;;;39.60;12.43;;;;;;;7.23;100.00;103936.00;5047044;28;20408;-55
2021/12/17 01:06:48;;;;;;;37.95;12.95;;;;;;;7.21;100.00;103930.78;5048858;28;20464;-53
2021/12/17 01:09:18;;;;;;;39.83;11.88;;;;;;;7.25;100.00;103931.63;5049678;28;20447;-55
2021/12/17 01:11:47;;;;;;;37.83;12.55;;;;;;;7.28;100.00;103931.63;5035228;28;20396;-55
2021/12/17 01:14:16;;;;;;;36.47;12.05;;;;;;;7.28;100.00;103934.25;5050933;28;20049;-55
2021/12/17 01:16:44;;;;;;;39.53;12.77;;;;;;;7.27;100.00;103933.38;5048035;28;20184;-55
2021/12/17 01:19:22;;;;;;;36.15;12.18;;;;;;;7.31;100.00;103929.00;5049810;28;20049;-51
2021/12/17 01:22:02;;;;;;;34.38;10.82;;;;;;;7.31;100.00;103928.09;5050184;28;20057;-55
2021/12/17 01:24:41;;;;;;;34.55;11.27;;;;;;;7.28;100.00;103923.78;5052781;28;20614;-55
2021/12/17 01:35:29;;;;;;;36.65;11.73;;;;;;;7.28;100.00;103922.03;5052679;28;20432;-53
2021/12/17 01:43:43;;;;;;;37.80;12.57;;;;;;;7.25;100.00;103929.88;5050025;28;20887;-54
2021/12/17 01:46:16;;;;;;;37.17;11.93;;;;;;;7.24;100.00;103935.09;5052535;28;20484;-54
2021/12/17 01:48:58;;;;;;;33.70;11.73;;;;;;;7.26;100.00;103936.84;5052349;28;20107;-53
2021/12/17 01:59:18;;;;;;;39.30;11.63;;;;;;;7.13;100.00;103937.78;5045085;28;20049;-54
2021/12/17 01:59:51;;;;;;;38.95;12.05;;;;;;;7.08;100.00;103936.91;5048283;28;20059;-53
2021/12/17 02:02:20;;;;;;;37.97;12.30;;;;;;;7.10;100.00;103949.09;5048875;28;20049;-56
2021/12/17 02:04:48;;;;;;;35.22;10.52;;;;;;;7.15;100.00;103948.22;5043055;28;20132;-54
2021/12/17 02:07:17;;;;;;;42.33;12.48;;;;;;;7.10;100.00;103948.22;5043970;28;20132;-55
2021/12/17 02:29:40;;;;;;;43.13;11.85;;;;;;;7.24;100.00;103953.44;5047949;28;20507;-54
2021/12/17 02:32:09;;;;;;;40.80;13.90;;;;;;;7.21;100.00;103948.22;5044905;28;20045;-52
2021/12/17 02:35:00;;;;;;;42.33;12.23;;;;;;;7.24;100.00;103950.81;5044063;28;20049;-52
2021/12/17 02:37:35;;;;;;;47.92;12.88;;;;;;;7.21;100.00;103946.47;5046360;28;20052;-54
2021/12/17 02:40:18;;;;;;;42.33;12.18;;;;;;;7.23;100.00;103949.09;5042003;28;20045;-52
2021/12/17 02:45:33;;;;;;;37.80;12.48;;;;;;;7.19;100.00;103934.25;5043512;28;20052;-54
2021/12/17 02:48:06;;;;;;;35.80;11.90;;;;;;;7.20;100.00;103952.59;5048738;28;20057;-53
2021/12/17 02:50:35;;;;;;;35.42;10.82;;;;;;;7.19;100.00;103950.84;5050084;28;20117;-54
2021/12/17 02:53:07;;;;;;;30.02;9.93;;;;;;;7.15;100.00;103951.72;5047055;28;20504;-54
2021/12/17 02:55:39;;;;;;;28.92;10.70;;;;;;;7.13;100.00;103949.97;5044683;28;20405;-53
2021/12/17 02:58:08;;;;;;;24.25;8.88;;;;;;;7.17;100.00;103955.22;5048833;28;20048;-51
2021/12/17 03:00:40;;;;;;;24.90;9.25;;;;;;;7.20;100.00;103949.97;5047678;28;20038;-54
2021/12/17 03:03:09;;;;;;;28.02;9.45;;;;;;;7.21;100.00;103949.09;5045946;28;20117;-55
2021/12/17 03:05:40;;;;;;;36.45;10.48;;;;;;;7.17;100.00;103952.59;5049249;28;20068;-54
2021/12/17 03:08:14;;;;;;;28.83;9.70;;;;;;;7.14;100.00;103947.34;5048457;28;20488;-52
2021/12/17 03:10:42;;;;;;;36.50;10.45;;;;;;;7.19;100.00;103940.38;5040544;28;20049;-53
2021/12/17 03:13:11;;;;;;;33.78;10.27;;;;;;;7.18;100.00;103932.50;5040239;28;20099;-55
2021/12/17 03:15:46;;;;;;;38.55;12.00;;;;;;;7.19;100.00;103932.50;5053362;28;20095;-54
2021/12/17 03:18:47;;;;;;;33.88;10.43;;;;;;;7.19;100.00;103932.50;5052468;28;20041;-55
2021/12/17 03:23:58;;;;;;;34.40;10.55;;;;;;;7.24;100.00;103930.75;5046240;28;20045;-53
2021/12/17 03:26:28;;;;;;;33.85;10.43;;;;;;;7.25;100.00;103922.03;5051839;28;20102;-54
2021/12/17 03:28:59;;;;;;;30.30;10.35;;;;;;;7.24;100.00;103915.06;5053300;28;20069;-54
2021/12/17 03:31:28;;;;;;;30.00;10.23;;;;;;;7.24;100.00;103914.16;5052084;28;20045;-53
2021/12/17 03:34:06;;;;;;;30.10;9.75;;;;;;;7.22;100.00;103919.41;5046082;28;20067;-53
2021/12/17 03:36:34;;;;;;;24.10;8.60;;;;;;;7.29;100.00;103922.88;5051755;28;20044;-52
2021/12/17 03:39:04;;;;;;;25.88;8.15;;;;;;;7.25;100.00;103922.03;5049906;28;20056;-55
2021/12/17 03:41:36;;;;;;;22.17;7.80;;;;;;;7.24;100.00;103922.91;5049206;28;20053;-54
2021/12/17 03:44:06;;;;;;;25.90;8.40;;;;;;;7.22;100.00;103915.94;5049558;28;20550;-53
2021/12/17 03:46:35;;;;;;;22.88;8.10;;;;;;;7.25;100.00;103918.53;5044410;28;20049;-54
2021/12/17 03:49:04;;;;;;;22.67;8.38;;;;;;;7.24;100.00;103920.28;5052336;28;20440;-55
2021/12/17 03:51:36;;;;;;;26.63;8.63;;;;;;;7.21;100.00;103922.91;5051437;28;20059;-56
2021/12/17 03:54:05;;;;;;;29.38;9.52;;;;;;;7.28;100.00;103931.63;5045406;28;20136;-56
2021/12/17 03:56:34;;;;;;;28.65;9.95;;;;;;;7.26;100.00;103929.00;5041833;28;20180;-56
2021/12/17 03:59:02;;;;;;;27.02;8.95;;;;;;;7.26;100.00;103934.22;5048778;28;20033;-55
2021/12/17 04:01:30;;;;;;;21.80;7.15;;;;;;;7.30;100.00;103929.88;5044453;28;20053;-57
2021/12/17 04:03:58;;;;;;;24.05;8.55;;;;;;;7.26;100.00;103930.75;5050233;28;20369;-55
2021/12/17 04:06:26;;;;;;;23.17;7.70;;;;;;;7.24;100.00;103925.53;5047927;28;20496;-56
2021/12/17 04:08:55;;;;;;;24.85;8.50;;;;;;;7.24;100.00;103930.75;5051978;28;20044;-57
2021/12/17 04:11:26;;;;;;;22.60;7.13;;;;;;;7.26;100.00;103931.63;5045154;28;20053;-56
2021/12/17 04:13:56;;;;;;;26.90;8.25;;;;;;;7.24;100.00;103935.09;5048227;28;20111;-55
2021/12/17 04:16:29;;;;;;;20.27;7.32;;;;;;;7.26;100.00;103931.63;5050947;28;20044;-55
2021/12/17 04:18:56;;;;;;;24.65;7.65;;;;;;;7.31;100.00;103930.72;5050921;28;20396;-55
2021/12/17 04:21:25;;;;;;;24.42;7.68;;;;;;;7.27;100.00;103924.66;5052006;28;20040;-56
2021/12/17 04:23:54;;;;;;;26.70;8.55;;;;;;;7.26;100.00;103929.00;5033827;28;20393;-56
2021/12/17 04:26:25;;;;;;;21.05;7.75;;;;;;;7.30;100.00;103934.25;5034211;28;20047;-56
2021/12/17 04:28:55;;;;;;;25.40;8.85;;;;;;;7.24;100.00;103925.53;5034035;28;20049;-55
2021/12/17 04:31:27;;;;;;;24.92;8.95;;;;;;;7.23;100.00;103934.25;5033607;28;20128;-56
2021/12/17 04:33:56;;;;;;;29.08;9.15;;;;;;;7.18;100.00;103929.91;5033965;28;20532;-56
2021/12/17 04:36:28;;;;;;;25.90;8.32;;;;;;;7.18;100.00;103933.38;5033987;28;20045;-54
2021/12/17 04:38:58;;;;;;;27.00;9.25;;;;;;;7.18;100.00;103930.75;5034108;28;20052;-57
2021/12/17 04:41:46;;;;;;;25.38;8.70;;;;;;;7.19;100.00;103929.88;5032005;28;20049;-56
2021/12/17 04:44:20;;;;;;;26.60;9.20;;;;;;;7.20;100.00;103921.16;5030779;28;20049;-55
2021/12/17 04:46:54;;;;;;;26.73;8.45;;;;;;;7.21;100.00;103927.25;5033196;28;20049;-55
2021/12/17 04:57:40;;;;;;;25.45;8.93;;;;;;;7.26;100.00;103930.75;5033201;28;20041;-52
2021/12/17 05:00:13;;;;;;;24.98;7.93;;;;;;;7.27;100.00;103920.28;5033707;28;20051;-53
2021/12/17 05:02:45;;;;;;;22.73;7.55;;;;;;;7.21;100.00;103920.31;5032222;28;20049;-54
2021/12/17 05:05:15;;;;;;;27.58;9.15;;;;;;;7.24;100.00;103925.53;5030630;28;20519;-56
2021/12/17 05:07:49;;;;;;;22.58;7.63;;;;;;;7.25;100.00;103937.75;5030673;28;20053;-54
2021/12/17 05:10:26;;;;;;;25.00;8.32;;;;;;;7.26;100.00;103931.63;5033741;28;20050;-54
2021/12/17 05:18:30;;;;;;;28.67;9.10;;;;;;;7.26;100.00;103936.00;5028210;28;20062;-56
2021/12/17 05:21:02;;;;;;;25.63;8.93;;;;;;;7.25;100.00;103945.59;5032219;28;20044;-54
2021/12/17 05:23:35;;;;;;;27.02;8.85;;;;;;;7.27;100.00;103935.13;5033004;28;20509;-54
2021/12/17 05:26:07;;;;;;;27.08;9.88;;;;;;;7.28;100.00;103948.22;5030715;28;20048;-55
2021/12/17 05:28:37;;;;;;;27.02;9.63;;;;;;;7.26;100.00;103954.31;5030956;28;20060;-57
2021/12/17 05:31:06;;;;;;;24.13;9.25;;;;;;;7.23;100.00;103943.84;5033018;28;20049;-57
2021/12/17 05:33:34;;;;;;;25.52;9.13;;;;;;;7.30;100.00;103950.81;5029113;28;20038;-56
2021/12/17 05:36:03;;;;;;;25.73;8.98;;;;;;;7.28;100.00;103945.59;5029848;28;20053;-57
2021/12/17 05:38:31;;;;;;;26.30;9.35;;;;;;;7.28;100.00;103953.44;5032795;28;20052;-55
2021/12/17 05:40:59;;;;;;;25.95;9.73;;;;;;;7.27;100.00;103949.06;5031563;28;20421;-57
2021/12/17 05:43:28;;;;;;;25.10;8.73;;;;;;;7.26;100.00;103949.94;5029711;28;20103;-55
2021/12/17 05:46:08;;;;;;;28.58;9.85;;;;;;;7.27;100.00;103943.84;5031456;28;20060;-52
2021/12/17 05:48:39;;;;;;;26.63;9.30;;;;;;;7.28;100.00;103942.13;5032034;28;20053;-54
2021/12/17 05:51:10;;;;;;;25.92;9.50;;;;;;;7.25;100.00;103935.13;5032870;28;20504;-56
2021/12/17 05:53:38;;;;;;;27.30;8.90;;;;;;;7.25;100.00;103931.63;5032424;28;20064;-57
2021/12/17 05:56:07;;;;;;;26.65;9.07;;;;;;;7.25;100.00;103937.75;5032689;28;20045;-56
2021/12/17 05:58:35;;;;;;;29.48;10.13;;;;;;;7.27;100.00;103948.22;5032113;28;20092;-54
2021/12/17 06:01:03;;;;;;;25.05;9.38;;;;;;;7.23;100.00;103949.94;5029171;28;20455;-55
2021/12/17 06:03:31;;;;;;;28.85;10.07;;;;;;;7.23;100.00;103946.47;5028308;28;20049;-54
2021/12/17 06:06:01;;;;;;;31.35;9.95;;;;;;;7.18;100.00;103946.47;5032318;28;20045;-55
2021/12/17 06:08:29;;;;;;;27.65;9.52;;;;;;;7.19;100.00;103953.44;5032253;28;20114;-53
2021/12/17 06:10:57;;;;;;;26.60;9.02;;;;;;;7.21;100.00;103943.88;5032045;28;20050;-55
2021/12/17 06:13:25;;;;;;;26.10;9.32;;;;;;;7.21;100.00;103943.88;5029716;28;20056;-52
2021/12/17 06:15:53;;;;;;;31.30;9.30;;;;;;;7.18;100.00;103946.47;5029054;28;20119;-49
2021/12/17 06:18:21;;;;;;;28.23;9.68;;;;;;;7.22;100.00;103952.56;5030023;28;20059;-54
2021/12/17 06:20:49;;;;;;;24.45;8.98;;;;;;;7.19;100.00;103958.69;5029815;28;20080;-51
2021/12/17 06:23:19;;;;;;;23.75;7.97;;;;;;;7.16;100.00;103957.81;5031196;28;20601;-52
2021/12/17 06:25:47;;;;;;;27.83;9.00;;;;;;;7.13;100.00;103971.78;5032218;28;20069;-52
2021/12/17 06:28:16;;;;;;;29.25;10.05;;;;;;;7.12;100.00;103964.81;5031748;28;20114;-51
2021/12/17 06:30:44;;;;;;;29.63;9.15;;;;;;;7.06;100.00;103970.94;5029159;28;20048;-51
2021/12/17 06:33:13;;;;;;;26.58;9.00;;;;;;;7.10;100.00;103969.16;5029763;28;20045;-52
2021/12/17 06:35:41;;;;;;;26.90;8.27;;;;;;;7.15;100.00;103972.66;5031737;28;20059;-52
2021/12/17 06:38:09;;;;;;;24.45;9.07;;;;;;;7.16;100.00;103969.16;5031903;28;20099;-52
2021/12/17 06:40:39;;;;;;;24.25;8.75;;;;;;;7.14;100.00;103965.66;5031509;28;20045;-53
2021/12/17 06:43:07;;;;;;;27.23;9.15;;;;;;;7.09;100.00;103968.28;5029236;28;20503;-52
2021/12/17 06:45:46;;;;;;;27.75;9.27;;;;;;;7.15;100.00;103969.19;5029666;28;20053;-51
2021/12/17 06:48:15;;;;;;;25.15;8.65;;;;;;;7.18;100.00;103961.31;5032035;28;20045;-52
2021/12/17 06:59:10;;;;;;;26.20;8.10;;;;;;;7.06;100.00;103967.41;5031334;28;20393;-51
2021/12/17 07:10:27;;;;;;;25.65;8.10;;;;;;;7.07;100.00;103943.00;4977148;28;20062;-56
2021/12/17 07:21:26;;;;;;;27.60;8.45;;;;;;;7.06;100.00;103957.84;5035353;28;20061;-56
2021/12/17 07:24:35;;;;;;;26.27;8.50;;;;;;;7.02;100.00;103965.66;5035555;28;20392;-54
2021/12/17 07:32:49;;;;;;;25.52;7.78;;;;;;;6.95;100.00;103967.41;5034845;28;20045;-55
2021/12/17 07:40:49;;;;;;;24.88;7.78;;;;;;;7.09;100.00;103968.28;5032148;28;20496;-52
2021/12/17 07:43:26;;;;;;;25.75;8.52;;;;;;;7.08;100.00;103977.00;5031924;28;20107;-52
2021/12/17 07:45:57;;;;;;;22.65;7.68;;;;;;;7.07;100.00;103977.03;5034393;28;20095;-54
2021/12/17 07:48:25;;;;;;;21.90;7.85;;;;;;;7.06;100.00;103972.66;5032927;28;20061;-54
2021/12/17 07:50:54;;;;;;;23.23;8.52;;;;;;;7.06;100.00;103965.69;5034745;28;20104;-52
2021/12/17 07:53:22;;;;;;;24.10;9.38;;;;;;;7.07;100.00;103970.03;5034720;28;20488;-51
2021/12/17 07:55:50;;;;;;;21.15;8.02;;;;;;;7.03;100.00;103963.06;5032518;28;20447;-53
2021/12/17 07:58:19;;;;;;;21.58;7.75;;;;;;;7.04;100.00;103969.19;5031738;28;20115;-50
2021/12/17 08:00:47;;;;;;;25.05;7.88;;;;;;;7.07;100.00;103971.78;5034582;28;20069;-52
2021/12/17 08:03:17;;;;;;;18.33;6.50;;;;;;;7.10;100.00;103974.38;5034418;28;20132;-51
2021/12/17 08:05:45;;;;;;;20.48;7.50;;;;;;;7.03;100.00;103972.66;5034161;28;20393;-56
2021/12/17 08:08:13;;;;;;;24.73;8.25;;;;;;;7.08;100.00;103970.91;5031746;28;20049;-56
2021/12/17 08:10:41;;;;;;;18.90;6.60;;;;;;;7.12;100.00;103967.44;5032110;28;20384;-56
2021/12/17 08:13:17;;;;;;;19.35;6.97;;;;;;;7.16;100.00;103973.50;5034496;28;20057;-54
2021/12/17 08:15:51;;;;;;;18.73;7.28;;;;;;;7.20;100.00;103976.16;5034226;28;20451;-56
2021/12/17 08:24:44;;;;;;;17.77;6.57;;;;;;;7.23;100.00;103991.84;5031401;28;20053;-56
2021/12/17 08:27:25;;;;;;;17.90;7.13;;;;;;;7.22;100.00;103990.09;5032742;28;20049;-54
2021/12/17 08:30:07;;;;;;;18.75;6.75;;;;;;;7.17;100.00;103998.81;5034149;28;20053;-53
2021/12/17 08:32:35;;;;;;;17.85;5.72;;;;;;;7.13;100.00;104000.59;5033898;28;20072;-55
2021/12/17 08:35:06;;;;;;;16.50;5.80;;;;;;;7.17;100.00;103990.97;5033793;28;20044;-53
2021/12/17 08:37:34;;;;;;;15.35;5.55;;;;;;;7.20;100.00;103997.09;5033981;28;20111;-52
2021/12/17 08:40:03;;;;;;;16.30;5.75;;;;;;;7.25;100.00;103997.97;5033678;28;20073;-53
2021/12/17 08:42:31;;;;;;;15.95;6.22;;;;;;;7.23;100.00;104004.94;5033966;28;20134;-53
2021/12/17 08:45:00;;;;;;;15.43;5.32;;;;;;;7.16;100.00;104004.91;5033664;28;20041;-53
2021/12/17 08:47:28;;;;;;;16.27;5.20;;;;;;;7.16;100.00;104002.31;5033645;28;20092;-53
2021/12/17 08:49:57;;;;;;;12.45;4.65;;;;;;;7.13;100.00;103997.97;5030465;28;20402;-53
2021/12/17 08:52:27;;;;;;;17.55;5.20;;;;;;;7.16;100.00;104002.31;5031475;28;20099;-55
2021/12/17 08:54:55;;;;;;;14.68;5.13;;;;;;;7.13;100.00;104000.59;5033784;28;20088;-54
2021/12/17 08:57:23;;;;;;;14.73;5.40;;;;;;;7.15;100.00;103996.22;5033524;28;20160;-54
2021/12/17 08:59:51;;;;;;;14.30;4.78;;;;;;;7.15;100.00;104001.44;5031328;28;20049;-54
2021/12/17 09:02:19;;;;;;;11.45;4.00;;;;;;;7.10;100.00;104005.81;5029821;28;20050;-53
2021/12/17 09:04:48;;;;;;;14.93;5.38;;;;;;;7.08;100.00;104002.31;5032619;28;20497;-54
2021/12/17 09:07:16;;;;;;;12.98;4.75;;;;;;;7.12;100.00;104004.06;5033522;28;20055;-54
2021/12/17 09:09:47;;;;;;;13.30;4.93;;;;;;;7.17;100.00;104004.94;5031852;28;20443;-53
2021/12/17 09:12:15;;;;;;;12.50;4.65;;;;;;;7.14;100.00;104002.31;5032646;28;20530;-54
2021/12/17 09:14:43;;;;;;;13.90;4.95;;;;;;;7.18;100.00;104009.28;5033083;28;20046;-54
2021/12/17 09:17:12;;;;;;;13.27;4.95;;;;;;;7.25;100.00;104016.28;5033262;28;20045;-55
2021/12/17 09:19:40;;;;;;;11.82;4.70;;;;;;;7.26;100.00;104018.00;5032182;28;20056;-54
2021/12/17 09:22:08;;;;;;;14.07;5.40;;;;;;;7.21;100.00;104024.13;5031037;28;20065;-53
2021/12/17 09:24:37;;;;;;;12.73;4.78;;;;;;;7.26;100.00;104020.63;5031309;28;20056;-53
2021/12/17 09:27:06;;;;;;;10.80;4.38;;;;;;;7.18;100.00;104025.00;5031595;28;20056;-49
2021/12/17 09:29:34;;;;;;;10.35;3.65;;;;;;;7.19;100.00;104031.97;5032626;28;20045;-53
2021/12/17 09:32:03;;;;;;;7.90;3.25;;;;;;;7.16;100.00;104034.59;5032773;28;20389;-56
2021/12/17 09:34:31;;;;;;;9.60;3.88;;;;;;;7.13;100.00;104036.34;5032771;28;20164;-55
2021/12/17 09:36:59;;;;;;;8.75;3.30;;;;;;;7.16;100.00;104037.22;5031267;28;20516;-55
2021/12/17 09:39:27;;;;;;;8.30;3.13;;;;;;;7.17;100.00;104044.22;5029484;28;20057;-52
2021/12/17 09:41:56;;;;;;;9.90;3.55;;;;;;;7.12;100.00;104043.34;5031527;28;20045;-55
2021/12/17 09:44:25;;;;;;;8.77;3.50;;;;;;;7.09;100.00;104052.06;5032553;28;20132;-54
2021/12/17 09:46:57;;;;;;;6.63;2.50;;;;;;;7.13;100.00;104054.66;5032406;28;20489;-55
2021/12/17 09:49:25;;;;;;;7.40;2.70;;;;;;;7.17;100.00;104059.03;5039072;28;20052;-54
2021/12/17 09:51:56;;;;;;;5.78;2.13;;;;;;;7.23;100.00;104054.66;5049641;28;20088;-55
2021/12/17 09:54:24;;;;;;;6.20;2.25;;;;;;;7.18;100.00;104059.03;5050849;28;20068;-54
2021/12/17 09:56:52;;;;;;;6.45;2.05;;;;;;;7.21;100.00;104051.19;5051131;28;20049;-54
2021/12/17 09:59:20;;;;;;;5.78;1.98;;;;;;;7.20;100.00;104059.03;5051451;28;20052;-54
2021/12/17 10:01:50;;;;;;;5.88;2.00;;;;;;;7.20;100.00;104059.03;5051031;28;20053;-55
2021/12/17 10:04:20;;;;;;;4.22;1.88;;;;;;;7.19;100.00;104057.31;5051147;28;20106;-55
2021/12/17 10:06:50;;;;;;;4.88;2.08;;;;;;;7.22;100.00;104065.16;5050507;28;20041;-54
2021/12/17 10:09:19;;;;;;;6.55;2.15;;;;;;;7.31;100.00;104066.88;5050678;28;20102;-53
2021/12/17 10:12:04;;;;;;;5.63;2.30;;;;;;;7.30;100.00;104075.63;5050711;28;20107;-54
2021/12/17 10:14:33;;;;;;;6.60;2.53;;;;;;;7.28;100.00;104071.25;5051062;28;20044;-52
2021/12/17 10:17:10;;;;;;;6.72;2.50;;;;;;;7.31;100.00;104078.25;5050534;28;20057;-52
2021/12/17 10:19:44;;;;;;;5.85;2.40;;;;;;;7.31;100.00;104067.78;5051062;28;20045;-53
2021/12/17 10:22:14;;;;;;;7.10;2.80;;;;;;;7.38;100.00;104071.25;5050914;28;20510;-50
2021/12/17 10:24:56;;;;;;;8.50;3.10;;;;;;;7.31;100.00;104070.38;5050729;28;20060;-54
2021/12/17 10:27:27;;;;;;;8.23;2.90;;;;;;;7.31;100.00;104066.88;5051121;28;20053;-53
2021/12/17 10:29:56;;;;;;;7.97;2.83;;;;;;;7.31;100.00;104072.13;5050982;28;20055;-52
2021/12/17 10:32:28;;;;;;;8.55;3.50;;;;;;;7.34;100.00;104070.38;5050697;28;20106;-53
2021/12/17 10:35:04;;;;;;;8.65;3.10;;;;;;;7.35;100.00;104069.50;5050185;28;20061;-52
2021/12/17 10:37:35;;;;;;;7.40;3.22;;;;;;;7.35;100.00;104063.38;5051077;28;20522;-55
2021/12/17 10:40:15;;;;;;;8.98;3.40;;;;;;;7.36;100.00;104066.03;5050606;28;20122;-55
2021/12/17 10:42:52;;;;;;;8.32;3.20;;;;;;;7.39;100.00;104059.91;5051104;28;20400;-53
2021/12/17 10:45:25;;;;;;;7.38;3.03;;;;;;;7.38;100.00;104064.28;5049518;28;20041;-51
2021/12/17 10:48:21;;;;;;;11.15;3.03;;;;;;;7.43;100.00;104061.63;5049976;28;20579;-54
2021/12/17 10:50:50;;;;;;;7.80;2.85;;;;;;;7.44;100.00;104066.91;5050465;28;20052;-54
2021/12/17 10:53:23;;;;;;;7.38;3.35;;;;;;;7.50;100.00;104063.41;5050697;28;20094;-54
2021/12/17 10:55:51;;;;;;;7.97;3.10;;;;;;;7.44;100.00;104063.38;5048841;28;20132;-53
2021/12/17 10:58:20;;;;;;;8.35;3.30;;;;;;;7.49;100.00;104066.03;5049889;28;20044;-53
2021/12/17 11:00:50;;;;;;;8.68;3.05;;;;;;;7.63;100.00;104072.09;5050032;28;20049;-54
2021/12/17 11:03:20;;;;;;;7.63;2.85;;;;;;;7.64;100.00;104070.38;5049815;28;20041;-52
2021/12/17 11:05:49;;;;;;;6.07;2.42;;;;;;;7.66;100.00;104071.22;5012926;28;20055;-55
2021/12/17 11:08:24;;;;;;;7.60;2.85;;;;;;;7.77;100.00;104074.69;5041203;28;20056;-49
2021/12/17 11:10:57;;;;;;;6.70;2.63;;;;;;;7.77;100.00;104077.31;5029915;28;20046;-54
2021/12/17 11:13:26;;;;;;;7.50;3.03;;;;;;;7.68;100.00;104074.75;5029831;28;20390;-53
2021/12/17 11:15:55;;;;;;;5.82;2.05;;;;;;;7.80;100.00;104069.47;5029957;28;20049;-53
2021/12/17 11:18:27;;;;;;;6.85;2.83;;;;;;;7.72;100.00;104068.63;5029907;28;20524;-53
2021/12/17 11:20:56;;;;;;;6.93;2.58;;;;;;;7.64;100.00;104070.38;5005474;28;20139;-52
2021/12/17 11:23:34;;;;;;;6.05;2.40;;;;;;;7.59;100.00;104067.75;5011015;28;20048;-54
2021/12/17 11:26:08;;;;;;;9.43;3.00;;;;;;;7.60;100.00;104065.13;5008727;28;20133;-53
2021/12/17 11:28:36;;;;;;;5.55;2.58;;;;;;;7.55;100.00;104059.03;5008043;28;20107;-53
2021/12/17 11:31:05;;;;;;;7.78;3.50;;;;;;;7.56;100.00;104055.53;5009278;28;20050;-53
2021/12/17 11:33:36;;;;;;;7.75;2.72;;;;;;;7.70;100.00;104055.53;5025656;28;20049;-53
2021/12/17 11:36:05;;;;;;;7.47;2.80;;;;;;;7.65;100.00;104056.38;5034044;28;20401;-54
2021/12/17 11:38:45;;;;;;;7.82;3.00;;;;;;;7.59;100.00;104066.00;5033311;28;20049;-52
2021/12/17 11:41:47;;;;;;;11.18;3.80;;;;;;;7.49;100.00;104066.88;5033908;28;20057;-54
2021/12/17 11:44:19;;;;;;;6.70;3.42;;;;;;;7.45;100.00;104060.75;5014290;28;20065;-52
2021/12/17 11:47:01;;;;;;;7.45;3.08;;;;;;;7.48;100.00;104059.03;5014109;28;20400;-53
2021/12/17 11:49:36;;;;;;;6.18;2.65;;;;;;;7.46;100.00;104059.03;5033856;28;20033;-53
2021/12/17 11:52:05;;;;;;;8.02;3.03;;;;;;;7.47;100.00;104060.75;5034886;28;20049;-53
2021/12/17 11:54:35;;;;;;;7.90;3.28;;;;;;;7.46;100.00;104061.66;5034958;28;20045;-52
2021/12/17 11:57:07;;;;;;;7.47;3.00;;;;;;;7.52;100.00;104071.25;5034983;28;20072;-53
2021/12/17 11:59:40;;;;;;;6.72;2.97;;;;;;;7.53;100.00;104059.91;5034882;28;20573;-54
2021/12/17 12:02:15;;;;;;;6.40;2.50;;;;;;;7.56;100.00;104058.13;5034626;28;20056;-51
2021/12/17 12:04:53;;;;;;;6.20;2.70;;;;;;;7.66;100.00;104063.38;5033531;28;20513;-52
2021/12/17 12:07:33;;;;;;;7.20;2.72;;;;;;;7.64;100.00;104057.28;5031645;28;20477;-53
2021/12/17 12:10:24;;;;;;;6.95;2.53;;;;;;;7.66;100.00;104043.28;5034106;28;20053;-56
2021/12/17 12:13:00;;;;;;;6.05;2.30;;;;;;;7.73;100.00;104047.66;5034278;28;20481;-54
2021/12/17 12:15:32;;;;;;;5.53;2.60;;;;;;;7.74;100.00;104048.50;5034725;28;20060;-54
2021/12/17 12:18:07;;;;;;;5.95;2.97;;;;;;;7.76;100.00;104041.53;5034563;28;20049;-52
2021/12/17 12:20:57;;;;;;;6.15;2.42;;;;;;;7.75;100.00;104047.63;5034459;28;20064;-53
2021/12/17 12:23:46;;;;;;;5.63;2.40;;;;;;;7.91;100.00;104032.75;5034314;28;20049;-54
2021/12/17 12:26:40;;;;;;;3.78;2.03;;;;;;;7.86;100.00;104027.50;5034208;28;20400;-54
2021/12/17 12:29:14;;;;;;;4.43;2.22;;;;;;;8.00;100.00;104037.09;5034193;28;20120;-54
2021/12/17 12:32:02;;;;;;;3.97;1.80;;;;;;;7.95;100.00;104035.34;5032867;28;20041;-55
2021/12/17 12:34:42;;;;;;;4.55;2.40;;;;;;;7.99;100.00;104038.84;5030025;28;20516;-51
2021/12/17 12:37:18;;;;;;;5.57;2.75;;;;;;;7.92;100.00;104027.50;5033370;28;20608;-53
2021/12/17 12:40:15;;;;;;;6.35;2.92;;;;;;;7.98;100.00;104033.63;5031762;28;20057;-54
2021/12/17 12:42:50;;;;;;;7.10;2.85;;;;;;;8.00;100.00;104031.84;5032708;28;20444;-55
2021/12/17 12:45:19;;;;;;;6.45;2.50;;;;;;;8.01;100.00;104038.84;5031420;28;20107;-53
2021/12/17 12:47:55;;;;;;;6.18;2.67;;;;;;;8.03;100.00;104037.97;5029696;28;20054;-57
2021/12/17 12:50:27;;;;;;;3.97;1.80;;;;;;;8.16;100.00;104032.66;5033924;28;20168;-53
2021/12/17 12:52:59;;;;;;;4.10;1.42;;;;;;;8.15;100.00;104034.41;5033306;28;20060;-54
2021/12/17 12:55:31;;;;;;;3.50;1.50;;;;;;;8.18;100.00;104018.69;5032965;28;20061;-54
2021/12/17 12:58:06;;;;;;;4.50;1.92;;;;;;;8.25;100.00;104020.38;5032830;28;20041;-54
2021/12/17 13:00:42;;;;;;;2.85;1.70;;;;;;;8.29;100.00;104022.09;5030316;28;20053;-53
2021/12/17 13:03:13;;;;;;;5.32;2.28;;;;;;;8.35;100.00;104018.56;5030862;28;20057;-56
2021/12/17 13:05:44;;;;;;;5.40;2.42;;;;;;;8.33;100.00;104022.09;5033299;28;20085;-55
2021/12/17 13:08:16;;;;;;;5.03;2.50;;;;;;;8.36;100.00;104009.84;5033209;28;20069;-54
2021/12/17 13:10:49;;;;;;;5.25;2.53;;;;;;;8.37;100.00;104021.19;5033032;28;20056;-54
2021/12/17 13:13:22;;;;;;;4.18;2.13;;;;;;;8.40;100.00;104022.06;5028894;28;20076;-53
2021/12/17 13:16:03;;;;;;;4.88;2.15;;;;;;;8.37;100.00;104023.81;5031685;28;20049;-54
2021/12/17 13:21:33;;;;;;;5.43;2.20;;;;;;;8.34;100.00;104035.19;5033077;28;20045;-54
2021/12/17 13:24:11;;;;;;;7.07;2.78;;;;;;;8.39;100.00;104029.94;5031591;28;20455;-54
2021/12/17 13:26:41;;;;;;;6.13;2.80;;;;;;;8.29;100.00;104026.50;5030247;28;20053;-55
2021/12/17 13:29:13;;;;;;;7.70;3.03;;;;;;;8.27;100.00;104020.38;5032017;28;20402;-53
2021/12/17 13:31:47;;;;;;;8.27;3.13;;;;;;;8.32;100.00;104017.72;5032812;28;20052;-53
2021/12/17 13:34:19;;;;;;;4.65;2.30;;;;;;;8.29;100.00;104016.00;5033024;28;20072;-55
2021/12/17 13:37:06;;;;;;;4.75;2.47;;;;;;;8.33;100.00;104012.50;5031600;28;20053;-54
2021/12/17 13:39:39;;;;;;;4.07;2.10;;;;;;;8.35;100.00;104010.72;5029169;28;20054;-54
2021/12/17 13:42:09;;;;;;;8.57;3.38;;;;;;;8.36;100.00;104009.84;5030438;28;20049;-52
2021/12/17 13:44:42;;;;;;;6.65;3.08;;;;;;;8.41;100.00;104008.06;5032574;28;20048;-55
2021/12/17 13:47:13;;;;;;;5.10;2.72;;;;;;;8.44;100.00;104002.81;5032932;28;20038;-53
2021/12/17 13:49:43;;;;;;;5.77;2.90;;;;;;;8.47;100.00;104001.94;5032761;28;20049;-54
2021/12/17 13:52:12;;;;;;;6.15;2.80;;;;;;;8.48;100.00;104003.69;5032357;28;20045;-55
2021/12/17 13:54:41;;;;;;;5.97;2.90;;;;;;;8.43;100.00;103998.44;5032425;28;20504;-55
2021/12/17 13:57:14;;;;;;;5.43;3.22;;;;;;;8.45;100.00;104003.69;5032393;28;20056;-54